Time;durP1;ratioP1;P1;durP2;ratioP2;P2;SDS_P1;SDS_P2;PMS_P1;PMS_P2;Temp;Humidity;BMP_temperature;BMP_pressure;BME280_temperature;BME280_humidity;BME280_pressure;Samples;Min_cycle;Max_cycle;Signal;HPM_P1;HPM_P2
2021/05/25 00:00:49;;;;;;;4.07;2.33;;;10.20;99.90;;;;;;5056674;28;20415;-73
2021/05/25 00:03:16;;;;;;;2.47;1.75;;;10.10;99.90;;;;;;5058609;28;20043;-73
2021/05/25 00:05:42;;;;;;;3.63;2.70;;;10.20;99.90;;;;;;5060918;28;20735;-73
2021/05/25 00:08:11;;;;;;;2.45;1.80;;;10.10;99.90;;;;;;5062424;28;20060;-73
2021/05/25 00:10:37;;;;;;;2.33;1.85;;;10.10;99.90;;;;;;5055386;28;20462;-73
2021/05/25 00:13:03;;;;;;;1.95;1.50;;;10.10;99.90;;;;;;5061698;28;20065;-73
2021/05/25 00:15:32;;;;;;;2.58;1.65;;;10.10;99.90;;;;;;5065334;28;20118;-73
2021/05/25 00:17:58;;;;;;;2.17;1.52;;;10.10;99.90;;;;;;5057025;28;20044;-73
2021/05/25 00:20:25;;;;;;;3.80;1.60;;;10.10;99.90;;;;;;5065610;28;20047;-73
2021/05/25 00:22:51;;;;;;;1.98;1.63;;;10.10;99.90;;;;;;5090666;28;20047;-73
2021/05/25 00:25:17;;;;;;;2.30;1.85;;;10.00;99.90;;;;;;5057919;28;20040;-73
2021/05/25 00:27:45;;;;;;;2.85;1.70;;;10.00;99.90;;;;;;5059607;28;20402;-73
2021/05/25 00:30:14;;;;;;;3.33;1.85;;;10.00;99.90;;;;;;5060497;28;20098;-73
2021/05/25 00:32:40;;;;;;;2.20;1.80;;;10.00;99.90;;;;;;5063591;28;20047;-73
2021/05/25 00:35:06;;;;;;;2.45;2.03;;;10.00;99.90;;;;;;5054040;28;20041;-73
2021/05/25 00:37:32;;;;;;;2.17;2.00;;;10.00;99.90;;;;;;5060157;28;20041;-73
2021/05/25 00:39:57;;;;;;;4.20;2.30;;;10.00;99.90;;;;;;5061077;28;20531;-73
2021/05/25 00:42:23;;;;;;;4.30;2.22;;;10.00;99.90;;;;;;5055619;28;20068;-73
2021/05/25 00:44:49;;;;;;;4.40;2.60;;;9.90;99.90;;;;;;5057665;28;20032;-73
2021/05/25 00:47:15;;;;;;;2.83;2.33;;;9.90;99.90;;;;;;5057327;28;20143;-73
2021/05/25 00:49:41;;;;;;;2.70;2.50;;;9.90;99.90;;;;;;5057633;28;20558;-74
2021/05/25 00:52:06;;;;;;;3.42;3.00;;;9.90;99.90;;;;;;5054788;28;20438;-74
2021/05/25 00:54:32;;;;;;;2.80;2.53;;;9.90;99.90;;;;;;5056503;28;20044;-73
2021/05/25 00:56:58;;;;;;;4.15;3.08;;;9.80;99.90;;;;;;5057421;28;20044;-74
2021/05/25 00:59:25;;;;;;;3.25;2.80;;;9.80;99.90;;;;;;5058121;28;20044;-74
2021/05/25 01:01:51;;;;;;;2.65;2.45;;;9.80;99.90;;;;;;5058745;28;20049;-74
2021/05/25 01:04:17;;;;;;;5.20;2.97;;;9.80;99.90;;;;;;5058697;28;20063;-74
2021/05/25 01:06:43;;;;;;;2.92;2.60;;;9.80;99.90;;;;;;5057185;28;20065;-74
2021/05/25 01:09:09;;;;;;;2.70;2.50;;;9.90;99.90;;;;;;5059620;28;20033;-74
2021/05/25 01:11:38;;;;;;;3.05;2.75;;;9.90;99.90;;;;;;5056861;28;20048;-74
2021/05/25 01:14:04;;;;;;;4.00;3.60;;;9.80;99.90;;;;;;5056374;28;20029;-74
2021/05/25 01:16:31;;;;;;;5.03;3.30;;;9.80;99.90;;;;;;5058804;28;20659;-74
2021/05/25 01:18:58;;;;;;;4.32;2.90;;;9.80;99.90;;;;;;5056052;28;20041;-74
2021/05/25 01:21:25;;;;;;;4.50;3.53;;;9.80;99.90;;;;;;5058820;28;20089;-74
2021/05/25 01:23:51;;;;;;;4.53;3.33;;;9.90;99.90;;;;;;5056325;28;20493;-74
2021/05/25 01:26:18;;;;;;;3.45;2.85;;;9.90;99.90;;;;;;5063503;28;20060;-74
2021/05/25 01:28:48;;;;;;;3.45;3.05;;;9.80;99.90;;;;;;5055577;28;20154;-74
2021/05/25 01:31:14;;;;;;;4.68;3.53;;;9.80;99.90;;;;;;5059886;28;20071;-73
2021/05/25 01:33:40;;;;;;;3.33;3.05;;;9.80;99.90;;;;;;5056040;28;20078;-74
2021/05/25 01:36:12;;;;;;;3.80;3.50;;;9.80;99.90;;;;;;5057508;28;20095;-74
2021/05/25 01:38:38;;;;;;;3.95;3.40;;;9.80;99.90;;;;;;5055014;28;20145;-74
2021/05/25 01:41:08;;;;;;;8.15;4.13;;;9.80;99.90;;;;;;5057666;28;20547;-74
2021/05/25 01:43:35;;;;;;;5.22;3.85;;;9.80;99.90;;;;;;5053038;28;20036;-74
2021/05/25 01:46:02;;;;;;;5.25;4.30;;;9.80;99.90;;;;;;5058622;28;20134;-74
2021/05/25 01:48:28;;;;;;;4.63;4.22;;;9.80;99.90;;;;;;5052754;28;20036;-74
2021/05/25 01:50:53;;;;;;;5.15;4.38;;;9.80;99.90;;;;;;5052649;28;20049;-74
2021/05/25 01:53:24;;;;;;;4.72;4.43;;;9.80;99.90;;;;;;5053577;28;20156;-74
2021/05/25 01:55:53;;;;;;;5.70;5.03;;;9.80;99.90;;;;;;5054808;28;20041;-74
2021/05/25 01:58:21;;;;;;;5.68;5.10;;;9.80;99.90;;;;;;5052145;28;20127;-74
2021/05/25 02:00:51;;;;;;;6.20;5.25;;;9.80;99.90;;;;;;5055938;28;20065;-74
2021/05/25 02:03:17;;;;;;;5.80;5.40;;;9.80;99.90;;;;;;5053018;28;20040;-74
2021/05/25 02:05:45;;;;;;;6.68;6.05;;;9.80;99.90;;;;;;5053608;28;20045;-74
2021/05/25 02:08:11;;;;;;;7.63;6.78;;;9.80;99.90;;;;;;5053897;28;20032;-74
2021/05/25 02:10:44;;;;;;;8.15;7.35;;;9.80;99.90;;;;;;5054044;28;20059;-74
2021/05/25 02:13:15;;;;;;;8.88;8.02;;;9.80;99.90;;;;;;5055220;28;20052;-74
2021/05/25 02:15:43;;;;;;;8.77;7.88;;;9.80;99.90;;;;;;5050834;28;20032;-73
2021/05/25 02:18:14;;;;;;;7.90;7.13;;;9.90;99.90;;;;;;5055385;28;20214;-74
2021/05/25 02:20:42;;;;;;;11.25;8.20;;;9.80;99.90;;;;;;5052373;28;20098;-74
2021/05/25 02:23:08;;;;;;;12.07;9.05;;;9.80;99.90;;;;;;5052884;28;20036;-73
2021/05/25 02:25:34;;;;;;;10.43;9.43;;;9.80;99.90;;;;;;5052352;28;20060;-74
2021/05/25 02:28:02;;;;;;;11.00;9.90;;;9.90;99.90;;;;;;5053309;28;20045;-74
2021/05/25 02:30:28;;;;;;;10.65;9.65;;;9.90;99.90;;;;;;5052114;28;20045;-73
2021/05/25 02:32:55;;;;;;;11.25;10.15;;;9.90;99.90;;;;;;5054425;28;20112;-73
2021/05/25 02:35:21;;;;;;;11.35;10.25;;;9.90;99.90;;;;;;5053663;28;20213;-73
2021/05/25 02:37:47;;;;;;;11.25;10.15;;;9.90;99.90;;;;;;5055294;28;20036;-74
2021/05/25 02:40:14;;;;;;;11.65;10.48;;;9.90;99.90;;;;;;5052845;28;20033;-74
2021/05/25 02:42:39;;;;;;;13.10;11.80;;;9.80;99.90;;;;;;5055542;28;20537;-73
2021/05/25 02:45:06;;;;;;;13.82;12.38;;;9.90;99.90;;;;;;5054244;28;20033;-74
2021/05/25 02:47:32;;;;;;;13.75;12.35;;;9.80;99.90;;;;;;5052278;28;20045;-73
2021/05/25 02:50:06;;;;;;;12.98;11.57;;;9.90;99.90;;;;;;5052816;28;20045;-74
2021/05/25 02:52:37;;;;;;;13.82;11.90;;;9.80;99.90;;;;;;5055181;28;20051;-74
2021/05/25 02:55:11;;;;;;;13.60;12.30;;;9.90;99.90;;;;;;5054164;28;20059;-74
2021/05/25 02:57:36;;;;;;;16.10;12.88;;;9.90;99.90;;;;;;5053237;28;20041;-74
2021/05/25 03:00:15;;;;;;;10.20;7.93;;;9.90;99.90;;;;;;5052450;28;20479;-74
2021/05/25 03:02:41;;;;;;;6.78;4.40;;;9.90;99.90;;;;;;5051213;28;20094;-74
2021/05/25 03:05:08;;;;;;;3.60;3.30;;;9.90;99.90;;;;;;5052410;28;21724;-73
2021/05/25 03:07:34;;;;;;;4.90;3.55;;;9.90;99.90;;;;;;5082440;28;20045;-73
2021/05/25 03:10:00;;;;;;;5.93;3.45;;;9.90;99.90;;;;;;5054200;28;20053;-73
2021/05/25 03:12:26;;;;;;;4.88;3.25;;;9.90;99.90;;;;;;5053508;28;20056;-73
2021/05/25 03:14:51;;;;;;;4.70;2.33;;;9.80;99.90;;;;;;5053489;28;20126;-73
2021/05/25 03:17:20;;;;;;;2.55;2.20;;;9.90;99.90;;;;;;5084447;28;20045;-72
2021/05/25 03:19:46;;;;;;;3.35;1.38;;;9.80;99.90;;;;;;5055783;28;20037;-73
2021/05/25 03:22:12;;;;;;;2.60;1.23;;;9.80;99.90;;;;;;5057441;28;22120;-73
2021/05/25 03:24:38;;;;;;;3.78;1.20;;;9.90;99.90;;;;;;5055494;28;20055;-73
2021/05/25 03:27:03;;;;;;;3.08;1.10;;;9.80;99.90;;;;;;5054506;28;20506;-73
2021/05/25 03:29:29;;;;;;;3.20;1.08;;;9.80;99.90;;;;;;5057013;28;20057;-73
2021/05/25 03:31:55;;;;;;;1.45;0.80;;;9.70;99.90;;;;;;5051517;28;20045;-74
2021/05/25 03:34:20;;;;;;;2.13;0.70;;;9.70;99.90;;;;;;5069618;28;20044;-73
2021/05/25 03:36:46;;;;;;;2.28;0.80;;;9.80;99.90;;;;;;5056648;28;20045;-74
2021/05/25 03:39:11;;;;;;;4.13;1.25;;;9.70;99.90;;;;;;5056120;28;20159;-73
2021/05/25 03:41:37;;;;;;;2.35;0.88;;;9.70;99.90;;;;;;5051643;28;20119;-73
2021/05/25 03:44:03;;;;;;;1.35;0.60;;;9.70;99.90;;;;;;5054277;28;20040;-73
2021/05/25 03:46:29;;;;;;;2.92;0.80;;;9.70;99.90;;;;;;5057169;28;20037;-73
2021/05/25 03:48:54;;;;;;;1.90;0.70;;;9.70;99.90;;;;;;5055389;28;20115;-73
2021/05/25 03:51:20;;;;;;;6.57;0.80;;;9.70;99.90;;;;;;5053974;28;20040;-73
2021/05/25 03:53:46;;;;;;;2.15;0.43;;;9.70;99.90;;;;;;5053670;28;20044;-73
2021/05/25 03:58:50;;;;;;;1.02;0.55;;;9.70;99.90;;;;;;5051260;28;20033;-73
2021/05/25 04:01:23;;;;;;;3.28;0.70;;;9.60;99.90;;;;;;5052789;28;20098;-73
2021/05/25 04:03:50;;;;;;;3.00;0.63;;;9.70;99.90;;;;;;5052728;28;20044;-74
2021/05/25 04:06:17;;;;;;;2.25;1.10;;;9.60;99.90;;;;;;5052217;28;20047;-73
2021/05/25 04:08:43;;;;;;;3.20;0.70;;;9.60;99.90;;;;;;5057084;28;20119;-73
2021/05/25 04:11:09;;;;;;;0.70;0.50;;;9.60;99.90;;;;;;5054617;28;20040;-73
2021/05/25 04:13:34;;;;;;;2.15;0.70;;;9.60;99.90;;;;;;5054633;28;20045;-73
2021/05/25 04:16:00;;;;;;;3.58;0.90;;;9.60;99.90;;;;;;5057964;28;20586;-73
2021/05/25 04:18:26;;;;;;;3.40;0.80;;;9.60;99.90;;;;;;5059747;28;20408;-73
2021/05/25 04:20:52;;;;;;;4.05;0.77;;;9.50;99.90;;;;;;5059179;28;20033;-73
2021/05/25 04:23:18;;;;;;;2.50;0.77;;;9.60;99.90;;;;;;5090578;27;20704;-73
2021/05/25 04:25:44;;;;;;;2.67;0.75;;;9.60;99.90;;;;;;5057156;28;20044;-73
2021/05/25 04:28:10;;;;;;;1.50;0.47;;;9.60;99.90;;;;;;5056371;28;20029;-73
2021/05/25 04:30:36;;;;;;;4.85;0.70;;;9.60;99.90;;;;;;5058247;28;20036;-73
2021/05/25 04:33:02;;;;;;;2.20;0.50;;;9.60;99.90;;;;;;5057919;28;20029;-73
2021/05/25 04:35:28;;;;;;;2.53;0.60;;;9.50;99.90;;;;;;5060287;28;20041;-73
2021/05/25 04:37:58;;;;;;;3.13;0.80;;;9.50;99.90;;;;;;5056752;28;20048;-73
2021/05/25 04:40:24;;;;;;;4.10;0.68;;;9.50;99.90;;;;;;5059806;28;20159;-73
2021/05/25 04:42:50;;;;;;;1.70;0.40;;;9.60;99.90;;;;;;5060060;28;20067;-73
2021/05/25 04:45:16;;;;;;;1.40;0.30;;;9.60;99.90;;;;;;5056017;28;20045;-73
2021/05/25 04:47:42;;;;;;;3.50;0.60;;;9.60;99.90;;;;;;5057141;28;20036;-73
2021/05/25 04:50:09;;;;;;;1.98;0.40;;;9.60;99.90;;;;;;5061183;28;20041;-73
2021/05/25 04:52:35;;;;;;;2.78;0.60;;;9.60;99.90;;;;;;5056518;28;20043;-73
2021/05/25 04:55:07;;;;;;;3.28;0.75;;;9.50;99.90;;;;;;5054480;28;20066;-73
2021/05/25 04:57:32;;;;;;;2.13;0.43;;;9.60;99.90;;;;;;5058934;28;20105;-74
2021/05/25 04:59:58;;;;;;;3.17;0.98;;;9.60;99.90;;;;;;5061780;28;20044;-73
2021/05/25 05:02:24;;;;;;;2.40;0.60;;;9.60;99.90;;;;;;5059904;28;20069;-73
2021/05/25 05:04:50;;;;;;;2.28;0.40;;;9.60;99.90;;;;;;5063625;28;20076;-73
2021/05/25 05:07:16;;;;;;;3.92;0.70;;;9.60;99.90;;;;;;5062813;28;20086;-73
2021/05/25 05:09:42;;;;;;;3.15;0.70;;;9.60;99.90;;;;;;5056697;28;20056;-73
2021/05/25 05:12:08;;;;;;;4.30;0.68;;;9.70;99.90;;;;;;5059656;28;20028;-73
2021/05/25 05:14:33;;;;;;;2.03;0.50;;;9.70;99.90;;;;;;5067269;28;20032;-73
2021/05/25 05:16:59;;;;;;;3.83;0.68;;;9.70;99.90;;;;;;5059818;28;20506;-73
2021/05/25 05:19:25;;;;;;;3.17;0.77;;;9.70;99.90;;;;;;5063154;28;20127;-73
2021/05/25 05:21:51;;;;;;;4.07;0.60;;;9.70;99.90;;;;;;5067961;28;20047;-73
2021/05/25 05:24:17;;;;;;;2.83;0.60;;;9.70;99.90;;;;;;5063492;28;20131;-73
2021/05/25 05:26:43;;;;;;;8.18;0.80;;;9.70;99.90;;;;;;5063973;28;20048;-73
2021/05/25 05:29:10;;;;;;;1.98;0.30;;;9.70;99.90;;;;;;5063859;28;20048;-72
2021/05/25 05:31:36;;;;;;;2.90;0.70;;;9.70;99.90;;;;;;5061492;28;20051;-73
2021/05/25 05:34:03;;;;;;;9.90;1.00;;;9.80;99.90;;;;;;5063927;28;20063;-74
2021/05/25 05:36:28;;;;;;;1.33;0.50;;;9.80;99.90;;;;;;5064683;28;20380;-73
2021/05/25 05:38:54;;;;;;;5.82;0.80;;;9.80;99.90;;;;;;5063125;28;20058;-73
2021/05/25 05:41:20;;;;;;;7.57;1.00;;;9.80;99.90;;;;;;5065949;28;20033;-74
2021/05/25 05:43:46;;;;;;;6.03;0.80;;;9.80;99.90;;;;;;5063912;28;20486;-73
2021/05/25 05:46:15;;;;;;;11.05;1.20;;;9.80;99.90;;;;;;5064236;28;20040;-74
2021/05/25 05:48:40;;;;;;;5.00;0.52;;;9.80;99.90;;;;;;5056905;28;20040;-74
2021/05/25 05:51:06;;;;;;;3.58;0.70;;;9.80;99.90;;;;;;5058785;28;20505;-74
2021/05/25 05:53:32;;;;;;;2.55;0.80;;;9.80;99.90;;;;;;5054952;28;20037;-74
2021/05/25 05:55:58;;;;;;;3.67;1.05;;;9.80;99.90;;;;;;5055477;28;20040;-74
2021/05/25 05:58:24;;;;;;;2.20;0.40;;;9.90;99.90;;;;;;5056836;28;20518;-74
2021/05/25 06:00:50;;;;;;;6.40;0.80;;;9.90;99.90;;;;;;5054647;28;20040;-74
2021/05/25 06:03:16;;;;;;;4.35;0.65;;;10.00;99.90;;;;;;5051682;28;20056;-74
2021/05/25 06:05:42;;;;;;;1.92;0.50;;;10.00;99.90;;;;;;5056793;28;20041;-74
2021/05/25 06:08:09;;;;;;;7.80;0.70;;;10.00;99.90;;;;;;5053155;28;20102;-75
2021/05/25 06:10:37;;;;;;;7.07;0.80;;;10.00;99.90;;;;;;5053035;28;20143;-74
2021/05/25 06:13:04;;;;;;;6.03;0.70;;;10.00;99.90;;;;;;5055989;28;20033;-74
2021/05/25 06:15:30;;;;;;;6.32;1.13;;;10.00;99.90;;;;;;5051898;28;20128;-74
2021/05/25 06:17:55;;;;;;;4.75;1.40;;;10.00;99.90;;;;;;5050459;28;20040;-74
2021/05/25 06:20:21;;;;;;;7.07;0.90;;;10.00;99.90;;;;;;5050001;28;20048;-74
2021/05/25 06:22:47;;;;;;;1.65;0.80;;;10.00;99.90;;;;;;5050608;28;20045;-72
2021/05/25 06:25:14;;;;;;;1.92;1.00;;;10.00;99.90;;;;;;5052171;28;20056;-73
2021/05/25 06:27:40;;;;;;;3.92;0.90;;;9.90;99.90;;;;;;5048019;28;20048;-72
2021/05/25 06:30:09;;;;;;;1.88;0.85;;;9.90;99.90;;;;;;5041778;28;20080;-73
2021/05/25 06:32:36;;;;;;;2.50;1.23;;;9.90;99.90;;;;;;5044463;28;20037;-72
2021/05/25 06:35:04;;;;;;;5.53;1.30;;;9.90;99.90;;;;;;5044183;28;20040;-72
2021/05/25 06:37:30;;;;;;;2.65;1.00;;;10.00;99.90;;;;;;5042890;28;20047;-73
2021/05/25 06:39:56;;;;;;;2.55;0.90;;;10.00;99.90;;;;;;5042867;28;20041;-72
2021/05/25 06:42:22;;;;;;;3.78;0.80;;;10.00;99.90;;;;;;5045236;28;20075;-73
2021/05/25 06:44:48;;;;;;;3.30;1.20;;;9.90;99.90;;;;;;5044494;28;21699;-73
2021/05/25 06:47:14;;;;;;;5.45;1.13;;;9.90;99.90;;;;;;5042906;28;20062;-72
2021/05/25 06:49:40;;;;;;;1.55;0.80;;;9.90;99.90;;;;;;5042364;28;20056;-73
2021/05/25 06:52:10;;;;;;;3.15;0.68;;;9.90;99.90;;;;;;5044574;28;20036;-73
2021/05/25 06:54:36;;;;;;;1.35;0.80;;;9.90;99.90;;;;;;5042970;28;20043;-73
2021/05/25 06:57:02;;;;;;;3.05;0.95;;;9.90;99.90;;;;;;5041523;28;20032;-72
2021/05/25 06:59:28;;;;;;;2.30;0.80;;;9.90;99.90;;;;;;5044488;28;20502;-73
2021/05/25 07:01:54;;;;;;;1.17;0.65;;;10.00;99.90;;;;;;5043113;28;20195;-72
2021/05/25 07:04:20;;;;;;;3.95;1.30;;;10.10;99.90;;;;;;5043656;28;20116;-73
2021/05/25 07:06:47;;;;;;;4.30;1.80;;;10.10;99.90;;;;;;5045308;28;21203;-72
2021/05/25 07:09:13;;;;;;;2.03;1.42;;;10.10;99.90;;;;;;5041954;28;20508;-72
2021/05/25 07:11:40;;;;;;;2.03;1.48;;;10.10;99.90;;;;;;5041475;28;20113;-73
2021/05/25 07:14:06;;;;;;;2.47;2.00;;;10.20;99.90;;;;;;5043432;28;20498;-73
2021/05/25 07:16:32;;;;;;;2.35;2.15;;;10.30;99.90;;;;;;5039740;28;20120;-72
2021/05/25 07:18:58;;;;;;;2.47;2.28;;;10.20;99.90;;;;;;5043834;28;20118;-73
2021/05/25 07:21:24;;;;;;;4.05;1.30;;;10.30;99.90;;;;;;5043080;28;20044;-73
2021/05/25 07:23:50;;;;;;;1.73;1.63;;;10.30;99.90;;;;;;5045611;28;20532;-73
2021/05/25 07:26:17;;;;;;;4.25;3.40;;;10.30;99.90;;;;;;5042608;28;20040;-73
2021/05/25 07:28:43;;;;;;;5.43;3.05;;;10.30;99.90;;;;;;5042349;28;20080;-72
2021/05/25 07:31:09;;;;;;;3.50;3.10;;;10.30;99.90;;;;;;5041014;28;20036;-72
2021/05/25 07:33:35;;;;;;;4.25;3.70;;;10.30;99.90;;;;;;5042763;28;20040;-72
2021/05/25 07:36:01;;;;;;;8.38;3.78;;;10.30;99.90;;;;;;5040588;28;20036;-73
2021/05/25 07:38:27;;;;;;;4.22;3.30;;;10.30;99.90;;;;;;5041737;28;20417;-73
2021/05/25 07:40:53;;;;;;;6.05;4.43;;;10.20;99.90;;;;;;5043344;28;20430;-73
2021/05/25 07:43:18;;;;;;;5.65;4.05;;;10.20;99.90;;;;;;5043193;28;20750;-73
2021/05/25 07:45:45;;;;;;;6.80;4.15;;;10.20;99.90;;;;;;5040532;28;20080;-72
2021/05/25 07:48:11;;;;;;;5.35;4.85;;;10.20;99.90;;;;;;5045354;28;20044;-72
2021/05/25 07:50:36;;;;;;;7.20;6.60;;;10.20;99.90;;;;;;5044339;28;20045;-72
2021/05/25 07:53:02;;;;;;;10.43;7.97;;;10.20;99.90;;;;;;5040341;28;21243;-72
2021/05/25 07:55:30;;;;;;;9.90;8.63;;;10.20;99.90;;;;;;5041857;28;20086;-72
2021/05/25 07:57:57;;;;;;;8.93;8.07;;;10.10;99.90;;;;;;5038840;28;20094;-72
2021/05/25 08:00:27;;;;;;;7.50;6.90;;;10.10;99.90;;;;;;5042820;28;20047;-73
2021/05/25 08:02:54;;;;;;;7.30;5.72;;;10.00;99.90;;;;;;5042962;28;20040;-73
2021/05/25 08:05:21;;;;;;;8.05;7.28;;;10.00;99.90;;;;;;5042198;28;20055;-72
2021/05/25 08:07:48;;;;;;;8.13;7.32;;;10.00;99.90;;;;;;5042921;28;20037;-72
2021/05/25 08:10:15;;;;;;;5.82;5.30;;;10.00;99.90;;;;;;5044581;28;20068;-73
2021/05/25 08:12:41;;;;;;;5.70;5.15;;;10.00;99.90;;;;;;5040407;28;20037;-73
2021/05/25 08:15:09;;;;;;;4.90;4.50;;;10.10;99.90;;;;;;5043406;28;20037;-73
2021/05/25 08:17:47;;;;;;;6.97;5.25;;;10.20;99.90;;;;;;5040956;28;20051;-73
2021/05/25 08:20:19;;;;;;;9.57;4.38;;;10.30;99.90;;;;;;5042911;28;20490;-73
2021/05/25 08:22:53;;;;;;;4.35;3.63;;;10.40;99.90;;;;;;5043503;28;20126;-73
2021/05/25 08:25:26;;;;;;;3.17;2.83;;;10.50;99.90;;;;;;5046305;28;20057;-74
2021/05/25 08:27:57;;;;;;;4.95;2.33;;;10.60;99.90;;;;;;5045361;28;20122;-74
2021/05/25 08:30:25;;;;;;;2.65;1.83;;;10.70;99.90;;;;;;5045401;28;20052;-74
2021/05/25 08:32:51;;;;;;;1.42;1.20;;;10.80;99.90;;;;;;5043843;28;20044;-74
2021/05/25 08:35:19;;;;;;;1.70;1.27;;;10.80;99.90;;;;;;5040698;28;20040;-74
2021/05/25 08:37:49;;;;;;;2.58;1.30;;;10.80;99.90;;;;;;5041324;28;20116;-74
2021/05/25 08:40:17;;;;;;;1.75;1.60;;;10.90;99.90;;;;;;5042006;28;20051;-73
2021/05/25 08:42:46;;;;;;;1.98;1.60;;;11.00;99.90;;;;;;5044926;28;20120;-74
2021/05/25 08:45:13;;;;;;;3.63;1.10;;;11.10;99.90;;;;;;5043283;28;20115;-75
2021/05/25 08:47:41;;;;;;;1.02;0.65;;;11.40;99.90;;;;;;5042426;28;20048;-73
2021/05/25 08:50:10;;;;;;;1.00;0.60;;;11.70;99.90;;;;;;5043456;28;20044;-73
2021/05/25 08:52:37;;;;;;;0.95;0.55;;;11.90;99.90;;;;;;5042772;28;20072;-74
2021/05/25 08:55:04;;;;;;;1.02;0.30;;;12.30;99.90;;;;;;5044876;28;20035;-75
2021/05/25 08:57:30;;;;;;;0.90;0.38;;;12.60;99.90;;;;;;5044452;28;21857;-76
2021/05/25 08:59:56;;;;;;;1.20;0.28;;;12.90;99.90;;;;;;5044983;28;20041;-74
2021/05/25 09:02:22;;;;;;;1.30;0.32;;;13.20;99.90;;;;;;5042775;28;20045;-74
2021/05/25 09:05:05;;;;;;;0.52;0.20;;;13.40;99.90;;;;;;5043021;28;20049;-74
2021/05/25 09:07:59;;;;;;;2.25;0.20;;;13.50;99.90;;;;;;5043580;28;20097;-74
2021/05/25 09:10:37;;;;;;;2.47;0.20;;;13.50;99.80;;;;;;5044048;28;20090;-74
2021/05/25 09:13:23;;;;;;;1.05;0.20;;;13.70;99.90;;;;;;5048674;28;20419;-75
2021/05/25 09:15:54;;;;;;;0.38;0.20;;;13.70;99.70;;;;;;5042013;28;20517;-74
2021/05/25 09:18:20;;;;;;;1.02;0.10;;;13.70;99.60;;;;;;5045529;28;20062;-74
2021/05/25 09:20:50;;;;;;;0.98;0.20;;;13.50;98.80;;;;;;5043356;28;20040;-75
2021/05/25 09:23:22;;;;;;;0.52;0.20;;;13.40;98.90;;;;;;5042574;28;20041;-75
2021/05/25 09:25:52;;;;;;;1.27;0.10;;;13.30;99.50;;;;;;5044167;28;20045;-75
2021/05/25 09:28:19;;;;;;;0.55;0.17;;;13.20;99.30;;;;;;5045626;28;20043;-75
2021/05/25 09:30:47;;;;;;;0.88;0.20;;;13.10;99.30;;;;;;5044509;28;20045;-75
2021/05/25 09:33:14;;;;;;;0.73;0.20;;;13.10;99.40;;;;;;5044939;28;20040;-75
2021/05/25 09:35:43;;;;;;;0.60;0.20;;;13.00;99.10;;;;;;5042091;28;20048;-75
2021/05/25 09:38:14;;;;;;;0.80;0.20;;;12.90;99.20;;;;;;5044061;28;20090;-75
2021/05/25 09:40:42;;;;;;;1.90;0.30;;;12.80;99.40;;;;;;5043610;28;20044;-75
2021/05/25 09:43:09;;;;;;;3.55;0.30;;;12.70;99.80;;;;;;5044729;28;21792;-76
2021/05/25 09:45:35;;;;;;;0.88;0.30;;;12.70;99.90;;;;;;5044260;28;20049;-74
2021/05/25 09:48:04;;;;;;;1.23;0.32;;;12.60;99.90;;;;;;5043494;28;20051;-75
2021/05/25 09:50:30;;;;;;;0.80;0.30;;;12.60;99.90;;;;;;5042273;28;20088;-74
2021/05/25 09:53:06;;;;;;;1.80;0.40;;;12.50;99.90;;;;;;5043169;28;20047;-74
2021/05/25 09:55:45;;;;;;;1.00;0.40;;;12.50;99.90;;;;;;5043677;28;20099;-74
2021/05/25 09:58:11;;;;;;;2.35;0.30;;;12.60;99.90;;;;;;5043787;28;20059;-74
2021/05/25 10:00:40;;;;;;;1.42;0.50;;;12.60;99.90;;;;;;5043946;28;20041;-74
2021/05/25 10:03:16;;;;;;;0.75;0.40;;;12.70;99.90;;;;;;5043200;28;20084;-74
2021/05/25 10:05:45;;;;;;;1.65;0.47;;;12.70;99.90;;;;;;5043562;28;20072;-74
2021/05/25 10:08:13;;;;;;;0.77;0.38;;;12.60;99.90;;;;;;5043262;28;20075;-74
2021/05/25 10:10:41;;;;;;;1.25;0.45;;;12.50;99.90;;;;;;5044167;28;20562;-74
2021/05/25 10:13:07;;;;;;;0.88;0.60;;;12.50;99.90;;;;;;5044793;28;20960;-74
2021/05/25 10:15:33;;;;;;;0.80;0.50;;;12.50;99.90;;;;;;5042675;28;20048;-74
2021/05/25 10:20:28;;;;;;;4.63;0.40;;;12.50;99.90;;;;;;5044294;28;20538;-74
2021/05/25 10:22:54;;;;;;;4.25;0.98;;;12.60;99.90;;;;;;5042387;28;20456;-74
2021/05/25 10:25:20;;;;;;;1.73;0.40;;;12.70;99.90;;;;;;5044435;28;20033;-74
2021/05/25 10:27:47;;;;;;;2.00;0.60;;;12.70;99.90;;;;;;5047865;28;20041;-74
2021/05/25 10:30:22;;;;;;;4.95;1.15;;;12.60;99.90;;;;;;5053022;28;20041;-76
2021/05/25 10:33:11;;;;;;;5.13;1.25;;;12.60;99.90;;;;;;5057159;28;20051;-74
2021/05/25 10:35:57;;;;;;;3.40;1.20;;;12.60;99.90;;;;;;5062131;28;20414;-75
2021/05/25 10:38:52;;;;;;;2.15;0.80;;;12.50;99.90;;;;;;5060781;28;20127;-74
2021/05/25 10:41:31;;;;;;;1.83;0.70;;;12.40;99.90;;;;;;5059773;28;20049;-74
2021/05/25 10:43:58;;;;;;;2.55;0.93;;;12.30;99.90;;;;;;5050946;28;20044;-74
2021/05/25 10:46:25;;;;;;;3.25;0.70;;;12.40;99.90;;;;;;5046558;28;20040;-75
2021/05/25 10:49:02;;;;;;;3.13;0.80;;;12.30;99.90;;;;;;5047265;28;20037;-75
2021/05/25 10:54:32;;;;;;;1.95;0.50;;;12.20;99.90;;;;;;5045011;28;20047;-74
2021/05/25 10:57:03;;;;;;;3.28;0.70;;;12.10;99.90;;;;;;5075287;28;20085;-74
2021/05/25 11:00:07;;;;;;;2.05;0.70;;;12.00;99.90;;;;;;5045522;28;20036;-74
2021/05/25 11:02:52;;;;;;;1.80;0.50;;;11.80;99.90;;;;;;5044219;28;20498;-74
2021/05/25 11:05:27;;;;;;;3.88;0.70;;;11.80;99.90;;;;;;5044757;28;20115;-73
2021/05/25 11:08:08;;;;;;;1.33;0.57;;;11.50;99.90;;;;;;5044890;28;20037;-73
2021/05/25 11:10:44;;;;;;;2.17;0.30;;;11.40;99.90;;;;;;5046598;28;20048;-74
2021/05/25 11:16:25;;;;;;;1.92;0.43;;;11.20;99.90;;;;;;5044075;28;20046;-74
2021/05/25 11:19:04;;;;;;;1.42;0.40;;;11.20;99.90;;;;;;5044398;28;20662;-74
2021/05/25 11:21:45;;;;;;;3.55;0.45;;;11.20;99.90;;;;;;5044069;28;20037;-74
2021/05/25 11:24:33;;;;;;;1.35;0.40;;;11.20;99.90;;;;;;5047088;28;20045;-74
2021/05/25 11:27:06;;;;;;;1.67;0.57;;;11.20;99.90;;;;;;5043175;28;20068;-74
2021/05/25 11:29:59;;;;;;;2.30;0.40;;;11.20;99.90;;;;;;5075516;28;20083;-74
2021/05/25 11:32:27;;;;;;;1.45;0.30;;;11.20;99.90;;;;;;5043909;28;20091;-74
2021/05/25 11:35:01;;;;;;;2.45;0.52;;;11.20;99.90;;;;;;5045094;28;20045;-74
2021/05/25 11:37:31;;;;;;;1.23;0.40;;;11.30;99.90;;;;;;5041757;28;20048;-74
2021/05/25 11:39:57;;;;;;;1.67;0.32;;;11.30;99.90;;;;;;5040740;28;20694;-73
2021/05/25 11:42:27;;;;;;;0.73;0.50;;;11.40;99.90;;;;;;5042604;28;20047;-74
2021/05/25 11:44:54;;;;;;;2.03;0.57;;;11.50;99.90;;;;;;5043509;28;20095;-74
2021/05/25 11:47:20;;;;;;;1.15;0.50;;;11.40;99.90;;;;;;5042273;28;20053;-74
2021/05/25 11:49:46;;;;;;;1.75;0.40;;;11.50;99.90;;;;;;5073007;28;20411;-74
2021/05/25 11:52:21;;;;;;;3.78;0.70;;;11.60;99.90;;;;;;5045609;28;20036;-75
2021/05/25 11:54:48;;;;;;;1.08;0.38;;;11.60;99.90;;;;;;5041464;28;20040;-74
2021/05/25 11:57:25;;;;;;;1.20;0.30;;;11.60;99.90;;;;;;5044704;28;20584;-75
2021/05/25 11:59:52;;;;;;;1.42;0.40;;;11.70;99.90;;;;;;5041263;28;20060;-74
2021/05/25 12:02:28;;;;;;;3.15;0.70;;;11.70;99.90;;;;;;5043794;28;20037;-74
2021/05/25 12:05:13;;;;;;;2.10;0.60;;;11.80;99.90;;;;;;5040573;28;20041;-74
2021/05/25 12:07:42;;;;;;;1.08;0.43;;;11.80;99.90;;;;;;5042397;28;20098;-74
2021/05/25 12:10:13;;;;;;;0.70;0.20;;;11.90;99.90;;;;;;5039009;28;20048;-74
2021/05/25 12:12:42;;;;;;;1.80;0.30;;;12.10;99.90;;;;;;5043631;28;20074;-74
2021/05/25 12:15:19;;;;;;;1.70;0.55;;;12.20;99.90;;;;;;5040855;28;20056;-75
2021/05/25 12:17:59;;;;;;;6.57;0.95;;;12.20;99.90;;;;;;5071591;28;20045;-75
2021/05/25 12:20:50;;;;;;;1.73;0.45;;;12.30;99.90;;;;;;5039604;28;20032;-74
2021/05/25 12:23:21;;;;;;;1.52;0.52;;;12.40;99.90;;;;;;5036628;28;20053;-75
2021/05/25 12:25:55;;;;;;;1.15;0.40;;;12.50;99.90;;;;;;5043685;28;20539;-75
2021/05/25 12:28:30;;;;;;;1.40;0.43;;;12.50;99.90;;;;;;5046418;28;20078;-75
2021/05/25 12:30:57;;;;;;;0.97;0.50;;;12.60;99.90;;;;;;5045741;28;20127;-75
2021/05/25 12:33:26;;;;;;;1.45;0.55;;;12.70;99.90;;;;;;5047662;28;20052;-74
2021/05/25 12:35:53;;;;;;;2.03;0.60;;;12.80;99.90;;;;;;5045609;28;20037;-75
2021/05/25 12:38:20;;;;;;;2.35;0.47;;;12.90;99.90;;;;;;5043558;28;20041;-75
2021/05/25 12:41:00;;;;;;;1.77;0.60;;;13.10;99.90;;;;;;5047523;28;20731;-75
2021/05/25 12:43:33;;;;;;;1.35;0.50;;;13.30;99.90;;;;;;5053137;28;20067;-75
2021/05/25 12:46:09;;;;;;;1.45;0.60;;;13.30;99.90;;;;;;5048743;28;20040;-75
2021/05/25 12:48:40;;;;;;;1.30;0.50;;;13.30;99.20;;;;;;5046441;28;20045;-76
2021/05/25 12:51:11;;;;;;;1.35;0.60;;;13.30;98.90;;;;;;5047296;28;20053;-75
2021/05/25 12:53:54;;;;;;;3.30;0.80;;;13.30;99.70;;;;;;5048156;28;20048;-75
2021/05/25 12:56:22;;;;;;;2.58;0.50;;;13.30;99.90;;;;;;5048087;28;20052;-75
2021/05/25 12:58:49;;;;;;;2.35;0.52;;;13.20;99.90;;;;;;5077534;28;20163;-75
2021/05/25 13:01:30;;;;;;;2.22;0.65;;;13.20;99.80;;;;;;5047800;28;20045;-75
2021/05/25 13:04:16;;;;;;;3.13;0.60;;;13.20;99.30;;;;;;5047525;28;20041;-75
2021/05/25 13:09:19;;;;;;;1.30;0.43;;;13.10;99.20;;;;;;5047760;28;20045;-75
2021/05/25 13:12:04;;;;;;;2.42;0.40;;;13.00;99.80;;;;;;5047691;28;20049;-75